createdAt,value
2022-09-24T00:01:38.642Z,74.10
2022-09-24T00:03:43.631Z,74.40
2022-09-24T00:05:50.568Z,74.60
2022-09-24T00:07:53.436Z,74.60
2022-09-24T00:09:56.147Z,74.50
2022-09-24T00:12:00.551Z,74.60
2022-09-24T00:14:03.916Z,74.40
2022-09-24T00:16:10.613Z,74.40
2022-09-24T00:18:14.544Z,74.20
2022-09-24T00:20:17.546Z,74.30
2022-09-24T00:22:21.629Z,74.20
2022-09-24T00:24:41.974Z,74.10
2022-09-24T00:26:50.793Z,74.20
2022-09-24T00:28:53.776Z,74.10
2022-09-24T00:30:59.047Z,74.20
2022-09-24T00:33:02.211Z,74.30
2022-09-24T00:35:06.699Z,74.30
2022-09-24T00:37:09.500Z,74.30
2022-09-24T00:39:14.305Z,74.30
2022-09-24T00:41:17.081Z,74.30
2022-09-24T00:43:27.854Z,74.30
2022-09-24T00:45:32.434Z,74.40
2022-09-24T00:47:39.600Z,74.10
2022-09-24T00:49:43.923Z,74.10
2022-09-24T00:51:49.266Z,74.00
2022-09-24T00:53:55.909Z,74.00
2022-09-24T00:56:03.236Z,74.00
2022-09-24T00:58:09.208Z,74.00
2022-09-24T01:00:13.466Z,74.00
2022-09-24T01:02:16.208Z,74.10
2022-09-24T01:04:21.496Z,74.20
2022-09-24T01:06:25.530Z,74.20
2022-09-24T01:08:28.328Z,74.20
2022-09-24T01:10:51.725Z,74.20
2022-09-24T01:13:03.238Z,74.30
2022-09-24T01:15:17.931Z,74.10
2022-09-24T01:17:30.048Z,74.10
2022-09-24T01:19:59.320Z,74.20
2022-09-24T01:22:08.170Z,74.30
2022-09-24T01:24:32.261Z,74.20
2022-09-24T01:26:48.968Z,74.40
2022-09-24T01:29:06.714Z,74.20
2022-09-24T01:31:18.153Z,74.30
2022-09-24T01:33:25.708Z,74.20
2022-09-24T01:35:34.080Z,74.30
2022-09-24T01:37:41.063Z,74.30
2022-09-24T01:39:45.666Z,74.10
2022-09-24T01:41:50.078Z,74.20
2022-09-24T01:43:53.062Z,74.20
2022-09-24T01:45:59.091Z,74.20
2022-09-24T01:48:05.170Z,74.10
2022-09-24T01:50:09.644Z,74.10
2022-09-24T01:52:17.204Z,74.10
2022-09-24T01:54:24.413Z,73.90
2022-09-24T01:56:31.355Z,74.00
2022-09-24T01:58:38.565Z,74.00
2022-09-24T02:00:46.149Z,73.90
2022-09-24T02:02:56.462Z,73.90
2022-09-24T02:05:07.272Z,74.00
2022-09-24T02:07:16.099Z,74.00
2022-09-24T02:09:33.602Z,74.10
2022-09-24T02:11:38.207Z,74.00
2022-09-24T02:13:46.859Z,74.00
2022-09-24T02:15:53.429Z,74.10
2022-09-24T02:18:00.418Z,74.00
2022-09-24T02:20:10.479Z,74.30
2022-09-24T02:22:15.093Z,74.40
2022-09-24T02:24:20.139Z,74.20
2022-09-24T02:26:23.241Z,74.30
2022-09-24T02:28:27.700Z,74.30
2022-09-24T02:30:34.390Z,74.20
2022-09-24T02:32:40.693Z,74.20
2022-09-24T02:34:47.217Z,74.30
2022-09-24T02:36:53.763Z,74.40
2022-09-24T02:38:56.520Z,74.40
2022-09-24T02:40:59.590Z,74.50
2022-09-24T02:43:02.378Z,74.40
2022-09-24T02:45:05.714Z,74.20
2022-09-24T02:47:09.147Z,74.10
2022-09-24T02:49:12.420Z,74.20
2022-09-24T02:51:15.144Z,74.20
2022-09-24T02:53:19.275Z,74.30
2022-09-24T02:55:21.992Z,74.20
2022-09-24T02:57:24.824Z,74.20
2022-09-24T02:59:27.731Z,74.20
2022-09-24T03:01:31.664Z,74.30
2022-09-24T03:03:34.506Z,74.40
2022-09-24T03:05:37.180Z,74.40
2022-09-24T03:07:40.043Z,74.50
2022-09-24T03:09:44.223Z,74.40
2022-09-24T03:11:47.451Z,74.40
2022-09-24T03:13:51.178Z,74.30
2022-09-24T03:15:54.523Z,74.50
2022-09-24T03:17:57.717Z,74.50
2022-09-24T03:20:00.429Z,74.40
2022-09-24T03:22:03.305Z,74.50
2022-09-24T03:24:06.506Z,74.60
2022-09-24T03:26:11.346Z,74.60
2022-09-24T03:28:14.087Z,74.50
2022-09-24T03:30:34.773Z,74.50
2022-09-24T03:32:39.097Z,74.50
2022-09-24T03:34:41.844Z,74.50
2022-09-24T03:36:44.507Z,75.20
2022-09-24T03:38:48.519Z,74.70
2022-09-24T03:40:54.059Z,74.80
2022-09-24T03:42:58.281Z,74.80
2022-09-24T03:45:00.987Z,74.90
2022-09-24T03:47:04.038Z,74.90
2022-09-24T03:49:06.732Z,75.10
2022-09-24T03:51:11.043Z,75.10
2022-09-24T03:53:14.252Z,75.20
2022-09-24T03:55:17.167Z,75.30
2022-09-24T03:57:19.902Z,75.40
2022-09-24T03:59:24.152Z,75.30
2022-09-24T04:01:27.538Z,75.50
2022-09-24T04:03:30.439Z,75.50
2022-09-24T04:05:33.530Z,75.70
2022-09-24T04:07:36.269Z,75.80
2022-09-24T04:09:38.981Z,75.80
2022-09-24T04:11:42.801Z,75.80
2022-09-24T04:13:45.796Z,75.80
2022-09-24T04:15:50.295Z,75.80
2022-09-24T04:17:53.880Z,75.70
2022-09-24T04:19:57.037Z,75.70
2022-09-24T04:21:59.847Z,75.70
2022-09-24T04:24:02.912Z,75.70
2022-09-24T04:26:05.654Z,75.70
2022-09-24T04:28:10.702Z,75.80
2022-09-24T04:30:15.394Z,75.80
2022-09-24T04:32:19.428Z,75.90
2022-09-24T04:34:22.198Z,76.00
2022-09-24T04:36:25.061Z,75.80
2022-09-24T04:38:27.773Z,75.90
2022-09-24T04:40:30.968Z,75.90
2022-09-24T04:42:34.029Z,75.90
2022-09-24T04:44:36.768Z,75.90
2022-09-24T04:46:39.979Z,75.80
2022-09-24T04:48:44.715Z,75.80
2022-09-24T04:50:47.887Z,75.90
2022-09-24T04:52:50.698Z,75.80
2022-09-24T04:54:54.643Z,75.90
2022-09-24T04:56:57.431Z,75.90
2022-09-24T04:59:00.338Z,76.00
2022-09-24T05:01:05.014Z,76.00
2022-09-24T05:03:07.966Z,76.00
2022-09-24T05:05:13.172Z,76.10
2022-09-24T05:07:15.993Z,76.10
2022-09-24T05:09:18.741Z,76.10
2022-09-24T05:11:23.745Z,76.10
2022-09-24T05:13:26.485Z,76.00
2022-09-24T05:15:29.318Z,76.10
2022-09-24T05:17:32.551Z,76.10
2022-09-24T05:19:35.404Z,76.10
2022-09-24T05:21:39.509Z,76.10
2022-09-24T05:23:42.185Z,76.00
2022-09-24T05:25:58.971Z,76.10
2022-09-24T05:28:11.020Z,76.20
2022-09-24T05:30:14.581Z,76.30
2022-09-24T05:32:20.178Z,76.20
2022-09-24T05:34:23.005Z,76.20
2022-09-24T05:36:26.928Z,76.10
2022-09-24T05:38:32.944Z,76.30
2022-09-24T05:40:50.735Z,76.40
2022-09-24T05:42:53.511Z,76.20
2022-09-24T05:44:56.257Z,76.20
2022-09-24T05:46:59.847Z,76.20
2022-09-24T05:49:02.705Z,76.40
2022-09-24T05:51:06.083Z,76.30
2022-09-24T05:53:09.352Z,76.40
2022-09-24T05:55:13.507Z,76.30
2022-09-24T05:57:16.508Z,76.40
2022-09-24T05:59:19.383Z,76.50
2022-09-24T06:01:22.237Z,77.20
2022-09-24T06:03:25.087Z,76.50
2022-09-24T06:05:28.060Z,76.40
2022-09-24T06:07:31.103Z,76.40
2022-09-24T06:09:33.817Z,76.40
2022-09-24T06:11:40.894Z,76.40
2022-09-24T06:13:44.014Z,76.40
2022-09-24T06:15:47.082Z,76.30
2022-09-24T06:17:50.117Z,76.20
2022-09-24T06:19:52.853Z,76.30
2022-09-24T06:21:57.072Z,76.30
2022-09-24T06:23:59.970Z,76.30
2022-09-24T06:26:03.170Z,76.20
2022-09-24T06:28:07.307Z,76.40
2022-09-24T06:30:11.890Z,76.50
2022-09-24T06:32:14.614Z,76.60
2022-09-24T06:34:17.464Z,76.40
2022-09-24T06:36:20.422Z,76.40
2022-09-24T06:38:23.315Z,76.40
2022-09-24T06:40:26.722Z,76.40
2022-09-24T06:42:30.959Z,76.50
2022-09-24T06:44:35.507Z,76.50
2022-09-24T06:46:38.252Z,76.60
2022-09-24T06:48:41.102Z,76.60
2022-09-24T06:50:45.672Z,76.50
2022-09-24T06:52:48.580Z,76.60
2022-09-24T06:54:51.358Z,76.60
2022-09-24T06:56:54.075Z,76.60
2022-09-24T06:58:56.834Z,76.60
2022-09-24T07:01:02.831Z,76.60
2022-09-24T07:03:06.103Z,76.60
2022-09-24T07:05:10.438Z,76.60
2022-09-24T07:07:32.924Z,76.50
2022-09-24T07:09:36.288Z,76.60
2022-09-24T07:11:39.613Z,76.50
2022-09-24T07:13:42.402Z,76.60
2022-09-24T07:15:46.275Z,76.60
2022-09-24T07:17:50.936Z,76.50
2022-09-24T07:19:53.965Z,76.60
2022-09-24T07:21:56.750Z,76.60
2022-09-24T07:23:59.465Z,76.50
2022-09-24T07:26:02.282Z,76.50
2022-09-24T07:28:08.553Z,76.60
2022-09-24T07:30:12.713Z,76.60
2022-09-24T07:32:17.646Z,76.70
2022-09-24T07:34:22.138Z,76.70
2022-09-24T07:36:24.885Z,76.60
2022-09-24T07:38:27.634Z,76.50
2022-09-24T07:40:31.563Z,76.60
2022-09-24T07:42:34.375Z,77.20
2022-09-24T07:44:37.999Z,76.40
2022-09-24T07:46:40.830Z,76.40
2022-09-24T07:48:43.709Z,76.40
2022-09-24T07:50:47.742Z,76.60
2022-09-24T07:52:51.325Z,76.80
2022-09-24T07:54:54.250Z,76.90
2022-09-24T07:56:57.050Z,76.80
2022-09-24T07:58:59.877Z,76.60
2022-09-24T08:01:03.154Z,76.70
2022-09-24T08:03:06.279Z,76.50
2022-09-24T08:05:09.913Z,76.60
2022-09-24T08:07:15.155Z,76.70
2022-09-24T08:09:18.055Z,76.40
2022-09-24T08:11:22.576Z,76.30
2022-09-24T08:13:27.865Z,76.00
2022-09-24T08:15:30.968Z,76.20
2022-09-24T08:17:33.640Z,76.00
2022-09-24T08:19:36.757Z,75.90
2022-09-24T08:21:40.292Z,76.00
2022-09-24T08:23:44.896Z,75.80
2022-09-24T08:25:47.666Z,75.80
2022-09-24T08:27:50.378Z,75.90
2022-09-24T08:29:53.568Z,75.90
2022-09-24T08:31:56.431Z,75.80
2022-09-24T08:33:59.156Z,75.80
2022-09-24T08:36:02.382Z,75.80
2022-09-24T08:38:05.239Z,75.80
2022-09-24T08:40:17.220Z,75.40
2022-09-24T08:42:31.795Z,75.60
2022-09-24T08:44:58.178Z,75.60
2022-09-24T08:47:21.552Z,75.60
2022-09-24T08:49:27.692Z,75.30
2022-09-24T08:51:37.406Z,75.30
2022-09-24T08:53:48.759Z,75.40
2022-09-24T08:55:55.088Z,74.90
2022-09-24T08:58:05.837Z,75.20
2022-09-24T09:00:15.171Z,74.90
2022-09-24T09:02:40.266Z,74.90
2022-09-24T09:04:57.990Z,74.60
2022-09-24T09:07:10.691Z,74.50
2022-09-24T09:09:18.204Z,74.60
2022-09-24T09:11:29.631Z,74.40
2022-09-24T09:13:37.130Z,74.40
2022-09-24T09:15:43.447Z,74.30
2022-09-24T09:17:50.969Z,74.10
2022-09-24T09:19:57.212Z,74.00
2022-09-24T09:22:03.998Z,73.50
2022-09-24T09:24:13.878Z,73.30
2022-09-24T09:26:18.298Z,73.30
2022-09-24T09:28:22.595Z,72.80
2022-09-24T09:30:25.514Z,72.90
2022-09-24T09:32:48.907Z,73.00
2022-09-24T09:34:59.978Z,72.50
2022-09-24T09:37:15.519Z,71.90
2022-09-24T09:39:29.826Z,72.60
2022-09-24T09:41:41.313Z,71.90
2022-09-24T09:43:45.360Z,71.70
2022-09-24T09:46:00.011Z,71.70
2022-09-24T09:48:03.600Z,72.20
2022-09-24T09:50:14.909Z,71.90
2022-09-24T09:52:21.793Z,71.70
2022-09-24T09:54:37.190Z,71.30
2022-09-24T09:56:46.691Z,71.20
2022-09-24T09:58:55.697Z,71.10
2022-09-24T10:01:07.450Z,70.80
2022-09-24T10:03:23.144Z,71.60
2022-09-24T10:05:28.722Z,70.50
2022-09-24T10:07:32.531Z,69.60
2022-09-24T10:09:36.415Z,68.20
2022-09-24T10:11:39.141Z,69.10
2022-09-24T10:13:41.898Z,69.20
2022-09-24T10:15:53.453Z,69.20
2022-09-24T10:17:56.305Z,69.40
2022-09-24T10:20:02.227Z,67.40
2022-09-24T10:22:10.761Z,68.00
2022-09-24T10:24:18.168Z,67.00
2022-09-24T10:26:20.969Z,66.80
2022-09-24T10:28:42.427Z,67.50
2022-09-24T10:30:57.396Z,67.60
2022-09-24T10:33:02.212Z,66.40
2022-09-24T10:35:21.308Z,65.50
2022-09-24T10:37:24.129Z,66.60
2022-09-24T10:39:29.368Z,65.40
2022-09-24T10:41:33.127Z,65.60
2022-09-24T10:43:35.853Z,65.80
2022-09-24T10:45:58.138Z,64.90
2022-09-24T10:48:09.203Z,64.90
2022-09-24T10:50:30.642Z,64.40
2022-09-24T10:52:47.476Z,63.40
2022-09-24T10:55:03.960Z,64.40
2022-09-24T10:57:18.101Z,65.00
2022-09-24T10:59:30.720Z,65.00
2022-09-24T11:01:43.702Z,64.30
2022-09-24T11:04:20.217Z,64.20
2022-09-24T11:06:39.517Z,64.70
2022-09-24T11:08:58.843Z,64.50
2022-09-24T11:11:16.020Z,63.10
2022-09-24T11:13:27.251Z,62.70
2022-09-24T11:15:45.724Z,62.30
2022-09-24T11:18:01.604Z,61.90
2022-09-24T11:20:21.261Z,61.00
2022-09-24T11:22:34.704Z,62.00
2022-09-24T11:25:05.168Z,61.00
2022-09-24T11:27:30.196Z,62.20
2022-09-24T11:29:49.745Z,62.60
2022-09-24T11:32:06.894Z,62.30
2022-09-24T11:34:27.376Z,60.60
2022-09-24T11:36:44.464Z,60.70
2022-09-24T11:39:05.972Z,59.10
2022-09-24T11:41:24.115Z,59.60
2022-09-24T11:43:54.972Z,60.60
2022-09-24T11:46:12.950Z,58.20
2022-09-24T11:48:38.376Z,58.80
2022-09-24T11:50:54.959Z,59.20
2022-09-24T11:53:06.921Z,59.60
2022-09-24T11:55:16.403Z,59.60
2022-09-24T11:57:25.541Z,58.90
2022-09-24T11:59:37.937Z,59.10
2022-09-24T12:01:47.207Z,58.90
2022-09-24T12:03:58.314Z,59.90
2022-09-24T12:06:06.933Z,58.40
2022-09-24T12:08:16.445Z,58.30
2022-09-24T12:10:36.021Z,59.90
2022-09-24T12:12:43.432Z,59.50
2022-09-24T12:14:52.453Z,59.60
2022-09-24T12:17:01.873Z,59.10
2022-09-24T12:19:10.197Z,58.80
2022-09-24T12:21:16.505Z,59.50
2022-09-24T12:23:27.818Z,60.00
2022-09-24T12:25:39.334Z,57.10
2022-09-24T12:27:46.835Z,58.00
2022-09-24T12:30:14.323Z,58.00
2022-09-24T12:32:41.856Z,58.20
2022-09-24T12:34:55.604Z,58.70
2022-09-24T12:37:02.151Z,58.60
2022-09-24T12:39:09.540Z,59.00
2022-09-24T12:41:29.882Z,59.90
2022-09-24T12:43:39.352Z,60.10
2022-09-24T12:45:42.527Z,59.90
2022-09-24T12:47:49.001Z,60.60
2022-09-24T12:49:57.225Z,60.70
2022-09-24T12:52:02.549Z,60.60
2022-09-24T12:54:21.777Z,61.20
2022-09-24T12:56:27.525Z,61.90
2022-09-24T12:58:36.846Z,62.90
2022-09-24T13:00:42.260Z,62.80
2022-09-24T13:02:47.107Z,62.90
2022-09-24T13:05:03.841Z,63.40
2022-09-24T13:07:39.013Z,63.30
2022-09-24T13:09:44.251Z,63.60
2022-09-24T13:11:47.510Z,63.50
2022-09-24T13:14:19.073Z,64.50
2022-09-24T13:16:22.840Z,65.10
2022-09-24T13:18:25.960Z,64.90
2022-09-24T13:20:28.761Z,65.50
2022-09-24T13:22:33.534Z,65.50
2022-09-24T13:24:50.738Z,66.30
2022-09-24T13:26:53.441Z,65.90
2022-09-24T13:28:58.678Z,65.30
2022-09-24T13:31:11.551Z,65.30
2022-09-24T13:33:24.060Z,65.40
2022-09-24T13:35:30.825Z,65.90
2022-09-24T13:37:39.352Z,66.20
2022-09-24T13:39:46.306Z,65.80
2022-09-24T13:41:58.310Z,66.10
2022-09-24T13:44:05.153Z,66.30
2022-09-24T13:46:16.845Z,66.30
2022-09-24T13:48:29.707Z,65.90
2022-09-24T13:50:36.470Z,65.70
2022-09-24T13:52:43.571Z,65.80
2022-09-24T13:54:52.992Z,65.60
2022-09-24T13:57:08.034Z,65.90
2022-09-24T13:59:13.081Z,65.20
2022-09-24T14:01:19.516Z,65.30
2022-09-24T14:03:26.477Z,64.90
2022-09-24T14:05:31.252Z,64.20
2022-09-24T14:07:34.119Z,64.60
2022-09-24T14:09:38.252Z,64.40
2022-09-24T14:11:50.334Z,64.40
2022-09-24T14:13:56.294Z,64.60
2022-09-24T14:16:02.629Z,64.90
2022-09-24T14:18:10.621Z,65.20
2022-09-24T14:20:16.659Z,64.90
2022-09-24T14:22:23.873Z,64.90
2022-09-24T14:24:30.422Z,64.80
2022-09-24T14:26:36.717Z,65.10
2022-09-24T14:28:39.627Z,64.80
2022-09-24T14:30:52.264Z,64.90
2022-09-24T14:32:57.167Z,65.30
2022-09-24T14:35:02.269Z,65.30
2022-09-24T14:37:11.480Z,64.70
2022-09-24T14:39:14.737Z,65.00
2022-09-24T14:41:21.021Z,64.40
2022-09-24T14:43:28.876Z,64.70
2022-09-24T14:45:36.112Z,65.10
2022-09-24T14:47:40.302Z,65.10
2022-09-24T14:49:45.833Z,65.60
2022-09-24T14:51:56.987Z,65.00
2022-09-24T14:54:02.375Z,65.00
2022-09-24T14:56:21.239Z,65.10
2022-09-24T14:58:36.418Z,64.40
2022-09-24T15:00:49.180Z,64.60
2022-09-24T15:02:58.554Z,64.60
2022-09-24T15:05:06.865Z,65.00
2022-09-24T15:07:16.989Z,64.80
2022-09-24T15:09:25.765Z,65.00
2022-09-24T15:11:31.368Z,65.60
2022-09-24T15:13:36.139Z,65.90
2022-09-24T15:15:39.973Z,66.20
2022-09-24T15:17:42.821Z,66.60
2022-09-24T15:19:47.598Z,66.70
2022-09-24T15:21:52.525Z,66.40
2022-09-24T15:23:56.876Z,66.60
2022-09-24T15:25:59.707Z,66.60
2022-09-24T15:28:02.766Z,66.90
2022-09-24T15:30:08.184Z,67.00
2022-09-24T15:32:17.017Z,67.00
2022-09-24T15:34:20.544Z,67.80
2022-09-24T15:36:25.191Z,66.90
2022-09-24T15:38:29.347Z,66.90
2022-09-24T15:40:33.840Z,66.90
2022-09-24T15:42:36.667Z,67.30
2022-09-24T15:44:39.934Z,68.40
2022-09-24T15:46:43.040Z,69.40
2022-09-24T15:48:46.296Z,70.00
2022-09-24T15:50:50.427Z,70.60
2022-09-24T15:52:59.046Z,71.10
2022-09-24T15:55:03.680Z,71.60
2022-09-24T15:57:06.484Z,71.70
2022-09-24T15:59:13.828Z,72.10
2022-09-24T16:01:19.147Z,72.20
2022-09-24T16:03:25.905Z,72.60
2022-09-24T16:05:28.766Z,72.80
2022-09-24T16:07:31.616Z,72.80
2022-09-24T16:09:35.873Z,73.00
2022-09-24T16:11:38.723Z,73.20
2022-09-24T16:13:41.608Z,73.40
2022-09-24T16:15:44.551Z,73.50
2022-09-24T16:17:49.880Z,73.40
2022-09-24T16:19:52.698Z,73.50
2022-09-24T16:21:55.534Z,73.60
2022-09-24T16:23:58.566Z,74.10
2022-09-24T16:26:03.005Z,74.10
2022-09-24T16:28:05.855Z,74.20
2022-09-24T16:30:09.655Z,74.30
2022-09-24T16:32:13.934Z,74.50
2022-09-24T16:34:18.643Z,74.80
2022-09-24T16:36:23.804Z,74.90
2022-09-24T16:38:28.725Z,74.90
2022-09-24T16:40:34.762Z,75.00
2022-09-24T16:42:38.914Z,75.00
2022-09-24T16:44:41.782Z,75.20
2022-09-24T16:46:45.447Z,75.40
2022-09-24T16:48:50.176Z,75.50
2022-09-24T16:50:53.021Z,75.60
2022-09-24T16:52:55.977Z,75.70
2022-09-24T16:54:59.236Z,75.80
2022-09-24T16:57:03.396Z,76.00
2022-09-24T16:59:07.424Z,76.10
2022-09-24T17:01:12.357Z,76.10
2022-09-24T17:03:15.359Z,76.20
2022-09-24T17:05:18.397Z,76.20
2022-09-24T17:07:21.146Z,76.30
2022-09-24T17:09:41.388Z,76.20
2022-09-24T17:11:46.692Z,76.10
2022-09-24T17:13:50.243Z,75.90
2022-09-24T17:15:54.435Z,75.90
2022-09-24T17:17:59.398Z,75.90
2022-09-24T17:20:02.481Z,76.10
2022-09-24T17:22:05.178Z,76.30
2022-09-24T17:24:09.068Z,76.50
2022-09-24T17:26:14.895Z,76.60
2022-09-24T17:28:17.596Z,76.70
2022-09-24T17:30:21.440Z,76.90
2022-09-24T17:32:25.787Z,77.20
2022-09-24T17:34:28.581Z,77.40
2022-09-24T17:36:33.012Z,77.60
2022-09-24T17:38:36.968Z,77.50
2022-09-24T17:40:40.021Z,77.50
2022-09-24T17:42:47.133Z,77.50
2022-09-24T17:44:49.866Z,77.60
2022-09-24T17:46:52.689Z,77.70
2022-09-24T17:48:58.494Z,77.90
2022-09-24T17:51:03.473Z,78.20
2022-09-24T17:53:06.249Z,78.40
2022-09-24T17:55:09.507Z,78.30
2022-09-24T17:57:12.272Z,78.60
2022-09-24T17:59:15.986Z,78.80
2022-09-24T18:01:21.229Z,78.90
2022-09-24T18:03:24.067Z,79.10
2022-09-24T18:05:28.230Z,79.10
2022-09-24T18:07:31.051Z,79.40
2022-09-24T18:09:33.873Z,79.30
2022-09-24T18:11:41.092Z,79.50
2022-09-24T18:13:43.929Z,79.50
2022-09-24T18:15:47.433Z,79.30
2022-09-24T18:17:50.317Z,79.30
2022-09-24T18:19:53.138Z,79.50
2022-09-24T18:21:59.222Z,79.60
2022-09-24T18:24:02.805Z,79.60
2022-09-24T18:26:11.885Z,79.70
2022-09-24T18:28:18.610Z,79.70
2022-09-24T18:30:22.139Z,79.80
2022-09-24T18:32:26.310Z,79.80
2022-09-24T18:34:29.874Z,79.90
2022-09-24T18:36:33.913Z,79.80
2022-09-24T18:38:38.172Z,79.80
2022-09-24T18:40:41.039Z,80.30
2022-09-24T18:42:43.911Z,79.70
2022-09-24T18:44:47.547Z,79.50
2022-09-24T18:46:50.506Z,79.70
2022-09-24T18:48:55.685Z,79.80
2022-09-24T18:50:58.817Z,80.10
2022-09-24T18:53:01.512Z,80.10
2022-09-24T18:55:06.856Z,80.10
2022-09-24T18:57:09.668Z,80.10
2022-09-24T18:59:14.397Z,80.00
2022-09-24T19:01:18.972Z,80.00
2022-09-24T19:03:23.457Z,80.30
2022-09-24T19:05:26.298Z,80.30
2022-09-24T19:07:30.529Z,80.90
2022-09-24T19:09:33.352Z,80.20
2022-09-24T19:11:38.000Z,80.20
2022-09-24T19:13:42.373Z,80.00
2022-09-24T19:15:45.271Z,80.00
2022-09-24T19:17:48.970Z,79.80
2022-09-24T19:19:52.665Z,79.90
2022-09-24T19:21:59.392Z,79.80
2022-09-24T19:24:02.724Z,79.70
2022-09-24T19:26:06.330Z,80.00
2022-09-24T19:28:12.972Z,80.90
2022-09-24T19:30:17.098Z,80.20
2022-09-24T19:32:19.884Z,80.40
2022-09-24T19:34:22.689Z,80.50
2022-09-24T19:36:25.837Z,80.50
2022-09-24T19:38:31.330Z,80.60
2022-09-24T19:40:34.582Z,81.50
2022-09-24T19:42:40.354Z,80.80
2022-09-24T19:44:44.664Z,80.90
2022-09-24T19:46:47.566Z,81.10
2022-09-24T19:48:51.338Z,81.30
2022-09-24T19:50:55.168Z,81.60
2022-09-24T19:52:58.008Z,81.80
2022-09-24T19:55:00.856Z,81.80
2022-09-24T19:57:03.631Z,81.90
2022-09-24T19:59:08.696Z,81.90
2022-09-24T20:01:17.033Z,81.90
2022-09-24T20:03:25.983Z,81.80
2022-09-24T20:05:28.758Z,81.60
2022-09-24T20:07:31.498Z,81.60
2022-09-24T20:09:34.308Z,81.50
2022-09-24T20:11:37.262Z,81.60
2022-09-24T20:13:42.946Z,81.70
2022-09-24T20:15:45.945Z,81.80
2022-09-24T20:17:53.665Z,82.00
2022-09-24T20:19:56.473Z,82.00
2022-09-24T20:21:59.293Z,82.20
2022-09-24T20:24:04.663Z,82.20
2022-09-24T20:26:25.570Z,82.40
2022-09-24T20:28:33.654Z,82.80
2022-09-24T20:30:37.933Z,82.90
2022-09-24T20:32:42.449Z,82.60
2022-09-24T20:34:46.653Z,82.30
2022-09-24T20:36:49.463Z,82.20
2022-09-24T20:38:52.602Z,82.00
2022-09-24T20:40:59.607Z,81.90
2022-09-24T20:43:09.136Z,82.30
2022-09-24T20:45:11.987Z,82.70
2022-09-24T20:47:14.671Z,82.80
2022-09-24T20:49:22.315Z,82.60
2022-09-24T20:51:28.184Z,82.80
2022-09-24T20:53:30.916Z,82.50
2022-09-24T20:55:33.627Z,82.20
2022-09-24T20:57:36.457Z,82.10
2022-09-24T20:59:39.780Z,82.10
2022-09-24T21:01:43.293Z,82.10
2022-09-24T21:03:47.816Z,81.90
2022-09-24T21:05:50.768Z,81.80
2022-09-24T21:07:55.178Z,81.70
2022-09-24T21:09:57.934Z,81.80
2022-09-24T21:12:01.432Z,81.60
2022-09-24T21:14:04.346Z,81.50
2022-09-24T21:16:07.922Z,81.40
2022-09-24T21:18:22.757Z,81.40
2022-09-24T21:20:26.998Z,81.30
2022-09-24T21:22:30.156Z,81.20
2022-09-24T21:24:34.815Z,81.30
2022-09-24T21:26:39.262Z,81.30
2022-09-24T21:28:43.467Z,81.40
2022-09-24T21:30:57.703Z,81.30
2022-09-24T21:33:00.520Z,81.50
2022-09-24T21:35:03.266Z,81.40
2022-09-24T21:37:06.045Z,81.30
2022-09-24T21:39:13.560Z,81.30
2022-09-24T21:41:17.926Z,81.20
2022-09-24T21:43:25.759Z,81.10
2022-09-24T21:45:30.119Z,81.10
2022-09-24T21:47:32.867Z,81.20
2022-09-24T21:49:38.830Z,81.50
2022-09-24T21:51:41.948Z,81.50
2022-09-24T21:53:44.838Z,81.60
2022-09-24T21:55:48.982Z,81.40
2022-09-24T21:57:53.071Z,81.30
2022-09-24T22:00:04.021Z,81.50
2022-09-24T22:02:07.101Z,81.40
2022-09-24T22:04:09.925Z,81.40
2022-09-24T22:06:13.095Z,81.50
2022-09-24T22:08:16.795Z,81.40
2022-09-24T22:10:19.544Z,81.60
2022-09-24T22:12:22.574Z,81.60
2022-09-24T22:14:28.632Z,81.80
2022-09-24T22:16:32.696Z,81.70
2022-09-24T22:18:37.032Z,81.80
2022-09-24T22:20:44.477Z,82.10
2022-09-24T22:22:47.189Z,82.70
2022-09-24T22:24:50.026Z,82.90
2022-09-24T22:26:54.059Z,83.30
2022-09-24T22:28:56.899Z,83.70
2022-09-24T22:31:04.826Z,83.90
2022-09-24T22:33:07.667Z,83.90
2022-09-24T22:35:29.663Z,83.80
2022-09-24T22:37:32.846Z,83.50
2022-09-24T22:39:36.364Z,83.20
2022-09-24T22:41:42.855Z,83.40
2022-09-24T22:43:46.003Z,83.70
2022-09-24T22:45:48.944Z,83.90
2022-09-24T22:47:55.152Z,83.70
2022-09-24T22:49:57.913Z,83.50
2022-09-24T22:52:00.803Z,83.70
2022-09-24T22:54:03.692Z,83.90
2022-09-24T22:56:09.493Z,83.80
2022-09-24T22:58:12.224Z,84.10
2022-09-24T23:00:18.035Z,84.40
2022-09-24T23:02:22.110Z,84.30
2022-09-24T23:04:26.249Z,84.30
2022-09-24T23:06:30.388Z,84.40
2022-09-24T23:08:34.131Z,84.20
2022-09-24T23:10:36.860Z,83.90
2022-09-24T23:12:39.572Z,83.90
2022-09-24T23:14:42.313Z,83.80
2022-09-24T23:16:46.136Z,83.50
2022-09-24T23:18:52.045Z,83.50
2022-09-24T23:20:57.531Z,83.50
2022-09-24T23:23:00.326Z,83.60
2022-09-24T23:25:03.233Z,84.10
2022-09-24T23:27:06.031Z,84.10
2022-09-24T23:29:09.322Z,84.40
2022-09-24T23:31:14.783Z,84.40
2022-09-24T23:33:17.636Z,84.60
2022-09-24T23:35:21.323Z,84.60
2022-09-24T23:37:25.418Z,84.60
2022-09-24T23:39:28.510Z,84.40
2022-09-24T23:41:31.859Z,84.50
2022-09-24T23:43:35.404Z,84.70
2022-09-24T23:45:38.174Z,84.50
2022-09-24T23:47:40.935Z,84.50
2022-09-24T23:49:43.742Z,84.30
2022-09-24T23:51:46.449Z,84.40
2022-09-24T23:53:50.525Z,84.20
2022-09-24T23:55:54.951Z,84.60
2022-09-24T23:57:57.756Z,84.80
